sensor_id;sensor_type;location;lat;lon;timestamp;P1;durP1;ratioP1;P2;durP2;ratioP2
75820;SDS011;64454;51.984;9.838;2023-12-29T00:02:19;4.03;;;1.30;;
75820;SDS011;64454;51.984;9.838;2023-12-29T00:04:45;1.40;;;1.00;;
75820;SDS011;64454;51.984;9.838;2023-12-29T00:07:11;2.05;;;1.10;;
75820;SDS011;64454;51.984;9.838;2023-12-29T00:09:37;3.10;;;1.00;;
75820;SDS011;64454;51.984;9.838;2023-12-29T00:12:06;4.60;;;1.20;;
75820;SDS011;64454;51.984;9.838;2023-12-29T00:14:33;2.17;;;1.00;;
75820;SDS011;64454;51.984;9.838;2023-12-29T00:17:02;1.80;;;1.00;;
75820;SDS011;64454;51.984;9.838;2023-12-29T00:19:29;1.60;;;1.00;;
75820;SDS011;64454;51.984;9.838;2023-12-29T00:21:55;2.90;;;1.00;;
75820;SDS011;64454;51.984;9.838;2023-12-29T00:24:21;2.25;;;1.00;;
75820;SDS011;64454;51.984;9.838;2023-12-29T00:26:47;1.65;;;1.00;;
75820;SDS011;64454;51.984;9.838;2023-12-29T00:29:14;2.38;;;1.10;;
75820;SDS011;64454;51.984;9.838;2023-12-29T00:31:40;1.92;;;1.00;;
75820;SDS011;64454;51.984;9.838;2023-12-29T00:34:06;2.22;;;0.90;;
75820;SDS011;64454;51.984;9.838;2023-12-29T00:36:33;2.85;;;1.05;;
75820;SDS011;64454;51.984;9.838;2023-12-29T00:38:59;2.00;;;0.80;;
75820;SDS011;64454;51.984;9.838;2023-12-29T00:41:25;3.00;;;1.38;;
75820;SDS011;64454;51.984;9.838;2023-12-29T00:43:51;2.40;;;1.10;;
75820;SDS011;64454;51.984;9.838;2023-12-29T00:46:18;3.53;;;1.08;;
75820;SDS011;64454;51.984;9.838;2023-12-29T00:48:44;2.55;;;1.10;;
75820;SDS011;64454;51.984;9.838;2023-12-29T00:51:10;4.55;;;1.10;;
75820;SDS011;64454;51.984;9.838;2023-12-29T00:53:36;2.20;;;1.30;;
75820;SDS011;64454;51.984;9.838;2023-12-29T00:56:02;2.20;;;1.08;;
75820;SDS011;64454;51.984;9.838;2023-12-29T00:58:34;3.85;;;1.55;;
75820;SDS011;64454;51.984;9.838;2023-12-29T01:01:00;3.13;;;1.30;;
75820;SDS011;64454;51.984;9.838;2023-12-29T01:03:27;1.52;;;1.00;;
75820;SDS011;64454;51.984;9.838;2023-12-29T01:05:53;2.88;;;1.00;;
75820;SDS011;64454;51.984;9.838;2023-12-29T01:08:19;4.55;;;1.10;;
75820;SDS011;64454;51.984;9.838;2023-12-29T01:10:45;2.60;;;1.20;;
75820;SDS011;64454;51.984;9.838;2023-12-29T01:13:11;2.40;;;1.30;;
75820;SDS011;64454;51.984;9.838;2023-12-29T01:15:38;2.17;;;1.08;;
75820;SDS011;64454;51.984;9.838;2023-12-29T01:18:05;3.40;;;1.10;;
75820;SDS011;64454;51.984;9.838;2023-12-29T01:20:32;3.97;;;1.10;;
75820;SDS011;64454;51.984;9.838;2023-12-29T01:22:58;4.47;;;1.25;;
75820;SDS011;64454;51.984;9.838;2023-12-29T01:25:24;4.05;;;1.40;;
75820;SDS011;64454;51.984;9.838;2023-12-29T01:27:50;4.93;;;1.40;;
75820;SDS011;64454;51.984;9.838;2023-12-29T01:30:17;3.40;;;0.80;;
75820;SDS011;64454;51.984;9.838;2023-12-29T01:32:43;1.73;;;0.82;;
75820;SDS011;64454;51.984;9.838;2023-12-29T01:35:09;2.20;;;1.00;;
75820;SDS011;64454;51.984;9.838;2023-12-29T01:37:36;2.13;;;1.00;;
75820;SDS011;64454;51.984;9.838;2023-12-29T01:40:02;2.00;;;0.90;;
75820;SDS011;64454;51.984;9.838;2023-12-29T01:42:29;3.80;;;0.90;;
75820;SDS011;64454;51.984;9.838;2023-12-29T01:44:55;2.63;;;1.17;;
75820;SDS011;64454;51.984;9.838;2023-12-29T01:47:22;2.60;;;1.00;;
75820;SDS011;64454;51.984;9.838;2023-12-29T01:49:49;2.30;;;0.90;;
75820;SDS011;64454;51.984;9.838;2023-12-29T01:52:16;1.90;;;1.00;;
75820;SDS011;64454;51.984;9.838;2023-12-29T01:54:46;3.40;;;0.90;;
75820;SDS011;64454;51.984;9.838;2023-12-29T01:57:15;1.85;;;0.90;;
75820;SDS011;64454;51.984;9.838;2023-12-29T01:59:42;1.55;;;1.08;;
75820;SDS011;64454;51.984;9.838;2023-12-29T02:02:10;2.00;;;0.98;;
75820;SDS011;64454;51.984;9.838;2023-12-29T02:04:37;3.10;;;0.80;;
75820;SDS011;64454;51.984;9.838;2023-12-29T02:07:06;2.35;;;0.85;;
75820;SDS011;64454;51.984;9.838;2023-12-29T02:09:32;3.65;;;1.00;;
75820;SDS011;64454;51.984;9.838;2023-12-29T02:12:00;4.15;;;1.40;;
75820;SDS011;64454;51.984;9.838;2023-12-29T02:14:27;1.60;;;0.90;;
75820;SDS011;64454;51.984;9.838;2023-12-29T02:16:56;3.10;;;1.00;;
75820;SDS011;64454;51.984;9.838;2023-12-29T02:19:36;1.73;;;0.80;;
75820;SDS011;64454;51.984;9.838;2023-12-29T02:22:05;2.17;;;0.90;;
75820;SDS011;64454;51.984;9.838;2023-12-29T02:24:33;1.80;;;0.82;;
75820;SDS011;64454;51.984;9.838;2023-12-29T02:27:03;2.70;;;1.00;;
75820;SDS011;64454;51.984;9.838;2023-12-29T02:29:43;3.47;;;0.90;;
75820;SDS011;64454;51.984;9.838;2023-12-29T02:32:17;2.35;;;1.05;;
75820;SDS011;64454;51.984;9.838;2023-12-29T02:34:45;1.43;;;0.70;;
75820;SDS011;64454;51.984;9.838;2023-12-29T02:37:16;2.75;;;0.82;;
75820;SDS011;64454;51.984;9.838;2023-12-29T02:39:44;5.55;;;1.00;;
75820;SDS011;64454;51.984;9.838;2023-12-29T02:42:12;3.35;;;1.60;;
75820;SDS011;64454;51.984;9.838;2023-12-29T02:44:38;1.52;;;0.70;;
75820;SDS011;64454;51.984;9.838;2023-12-29T02:47:04;3.03;;;0.93;;
75820;SDS011;64454;51.984;9.838;2023-12-29T02:49:31;4.30;;;1.10;;
75820;SDS011;64454;51.984;9.838;2023-12-29T02:51:57;2.00;;;0.90;;
75820;SDS011;64454;51.984;9.838;2023-12-29T02:54:23;2.88;;;1.00;;
75820;SDS011;64454;51.984;9.838;2023-12-29T02:56:49;5.10;;;1.10;;
75820;SDS011;64454;51.984;9.838;2023-12-29T02:59:16;2.90;;;0.90;;
75820;SDS011;64454;51.984;9.838;2023-12-29T03:01:42;2.90;;;0.90;;
75820;SDS011;64454;51.984;9.838;2023-12-29T03:04:08;2.22;;;1.00;;
75820;SDS011;64454;51.984;9.838;2023-12-29T03:06:35;2.55;;;1.30;;
75820;SDS011;64454;51.984;9.838;2023-12-29T03:09:01;2.92;;;0.82;;
75820;SDS011;64454;51.984;9.838;2023-12-29T03:11:27;4.00;;;1.00;;
75820;SDS011;64454;51.984;9.838;2023-12-29T03:13:53;1.98;;;0.80;;
75820;SDS011;64454;51.984;9.838;2023-12-29T03:16:20;3.20;;;1.08;;
75820;SDS011;64454;51.984;9.838;2023-12-29T03:18:46;2.67;;;1.10;;
75820;SDS011;64454;51.984;9.838;2023-12-29T03:21:12;2.33;;;0.70;;
75820;SDS011;64454;51.984;9.838;2023-12-29T03:23:38;1.80;;;0.70;;
75820;SDS011;64454;51.984;9.838;2023-12-29T03:26:05;3.03;;;0.80;;
75820;SDS011;64454;51.984;9.838;2023-12-29T03:28:31;2.60;;;0.70;;
75820;SDS011;64454;51.984;9.838;2023-12-29T03:30:57;3.63;;;0.80;;
75820;SDS011;64454;51.984;9.838;2023-12-29T03:33:26;3.80;;;1.00;;
75820;SDS011;64454;51.984;9.838;2023-12-29T03:35:52;2.45;;;0.65;;
75820;SDS011;64454;51.984;9.838;2023-12-29T03:38:18;2.67;;;0.98;;
75820;SDS011;64454;51.984;9.838;2023-12-29T03:40:44;2.35;;;0.70;;
75820;SDS011;64454;51.984;9.838;2023-12-29T03:43:10;1.40;;;0.70;;
75820;SDS011;64454;51.984;9.838;2023-12-29T03:45:36;2.75;;;0.90;;
75820;SDS011;64454;51.984;9.838;2023-12-29T03:48:03;2.47;;;0.70;;
75820;SDS011;64454;51.984;9.838;2023-12-29T03:50:30;2.58;;;0.80;;
75820;SDS011;64454;51.984;9.838;2023-12-29T03:52:56;1.48;;;0.75;;
75820;SDS011;64454;51.984;9.838;2023-12-29T03:55:22;3.10;;;0.90;;
75820;SDS011;64454;51.984;9.838;2023-12-29T03:57:49;4.30;;;1.00;;
75820;SDS011;64454;51.984;9.838;2023-12-29T04:00:15;2.10;;;0.80;;
75820;SDS011;64454;51.984;9.838;2023-12-29T04:02:42;3.20;;;1.10;;
75820;SDS011;64454;51.984;9.838;2023-12-29T04:05:11;3.92;;;0.90;;
75820;SDS011;64454;51.984;9.838;2023-12-29T04:07:39;2.87;;;0.93;;
75820;SDS011;64454;51.984;9.838;2023-12-29T04:10:06;3.35;;;0.90;;
75820;SDS011;64454;51.984;9.838;2023-12-29T04:12:33;2.05;;;0.88;;
75820;SDS011;64454;51.984;9.838;2023-12-29T04:14:59;3.05;;;0.82;;
75820;SDS011;64454;51.984;9.838;2023-12-29T04:17:25;3.15;;;0.80;;
75820;SDS011;64454;51.984;9.838;2023-12-29T04:19:51;2.20;;;0.70;;
75820;SDS011;64454;51.984;9.838;2023-12-29T04:22:18;2.33;;;0.82;;
75820;SDS011;64454;51.984;9.838;2023-12-29T04:24:45;2.35;;;0.80;;
75820;SDS011;64454;51.984;9.838;2023-12-29T04:27:11;2.30;;;0.80;;
75820;SDS011;64454;51.984;9.838;2023-12-29T04:29:37;3.40;;;1.10;;
75820;SDS011;64454;51.984;9.838;2023-12-29T04:32:03;2.47;;;0.80;;
75820;SDS011;64454;51.984;9.838;2023-12-29T04:34:30;2.35;;;1.00;;
75820;SDS011;64454;51.984;9.838;2023-12-29T04:36:56;4.28;;;1.08;;
75820;SDS011;64454;51.984;9.838;2023-12-29T04:39:22;1.50;;;0.80;;
75820;SDS011;64454;51.984;9.838;2023-12-29T04:41:50;2.42;;;1.10;;
75820;SDS011;64454;51.984;9.838;2023-12-29T04:44:16;1.50;;;0.98;;
75820;SDS011;64454;51.984;9.838;2023-12-29T04:46:42;2.63;;;1.15;;
75820;SDS011;64454;51.984;9.838;2023-12-29T04:49:09;2.30;;;1.00;;
75820;SDS011;64454;51.984;9.838;2023-12-29T04:51:35;2.50;;;1.00;;
75820;SDS011;64454;51.984;9.838;2023-12-29T04:54:01;2.92;;;1.20;;
75820;SDS011;64454;51.984;9.838;2023-12-29T04:56:28;4.35;;;1.10;;
75820;SDS011;64454;51.984;9.838;2023-12-29T04:58:55;3.63;;;0.90;;
75820;SDS011;64454;51.984;9.838;2023-12-29T05:01:21;2.38;;;0.80;;
75820;SDS011;64454;51.984;9.838;2023-12-29T05:03:48;2.30;;;0.90;;
75820;SDS011;64454;51.984;9.838;2023-12-29T05:06:14;2.40;;;0.90;;
75820;SDS011;64454;51.984;9.838;2023-12-29T05:08:40;1.38;;;0.90;;
75820;SDS011;64454;51.984;9.838;2023-12-29T05:11:06;4.13;;;0.90;;
75820;SDS011;64454;51.984;9.838;2023-12-29T05:13:32;2.97;;;0.80;;
75820;SDS011;64454;51.984;9.838;2023-12-29T05:15:59;1.38;;;0.70;;
75820;SDS011;64454;51.984;9.838;2023-12-29T05:18:25;3.20;;;1.20;;
75820;SDS011;64454;51.984;9.838;2023-12-29T05:20:54;2.10;;;1.13;;
75820;SDS011;64454;51.984;9.838;2023-12-29T05:23:20;2.80;;;1.30;;
75820;SDS011;64454;51.984;9.838;2023-12-29T05:25:46;3.10;;;0.85;;
75820;SDS011;64454;51.984;9.838;2023-12-29T05:28:13;3.15;;;1.00;;
75820;SDS011;64454;51.984;9.838;2023-12-29T05:30:39;3.35;;;1.00;;
75820;SDS011;64454;51.984;9.838;2023-12-29T05:33:05;1.67;;;1.10;;
75820;SDS011;64454;51.984;9.838;2023-12-29T05:35:31;3.30;;;0.85;;
75820;SDS011;64454;51.984;9.838;2023-12-29T05:37:57;2.42;;;1.10;;
75820;SDS011;64454;51.984;9.838;2023-12-29T05:40:23;1.48;;;0.93;;
75820;SDS011;64454;51.984;9.838;2023-12-29T05:42:49;1.70;;;0.80;;
75820;SDS011;64454;51.984;9.838;2023-12-29T05:45:16;1.77;;;0.60;;
75820;SDS011;64454;51.984;9.838;2023-12-29T05:47:42;2.47;;;1.50;;
75820;SDS011;64454;51.984;9.838;2023-12-29T05:50:09;4.30;;;1.27;;
75820;SDS011;64454;51.984;9.838;2023-12-29T05:52:35;2.28;;;0.93;;
75820;SDS011;64454;51.984;9.838;2023-12-29T05:55:01;2.70;;;1.00;;
75820;SDS011;64454;51.984;9.838;2023-12-29T05:57:28;1.20;;;0.60;;
75820;SDS011;64454;51.984;9.838;2023-12-29T05:59:54;1.88;;;0.90;;
75820;SDS011;64454;51.984;9.838;2023-12-29T06:02:20;3.33;;;0.90;;
75820;SDS011;64454;51.984;9.838;2023-12-29T06:04:46;1.70;;;0.80;;
75820;SDS011;64454;51.984;9.838;2023-12-29T06:07:13;1.10;;;0.70;;
75820;SDS011;64454;51.984;9.838;2023-12-29T06:09:39;3.30;;;0.70;;
75820;SDS011;64454;51.984;9.838;2023-12-29T06:12:05;1.90;;;0.70;;
75820;SDS011;64454;51.984;9.838;2023-12-29T06:14:31;2.95;;;1.25;;
75820;SDS011;64454;51.984;9.838;2023-12-29T06:16:58;1.10;;;0.70;;
75820;SDS011;64454;51.984;9.838;2023-12-29T06:19:24;2.10;;;0.80;;
75820;SDS011;64454;51.984;9.838;2023-12-29T06:21:50;2.63;;;1.00;;
75820;SDS011;64454;51.984;9.838;2023-12-29T06:24:16;2.25;;;0.93;;
75820;SDS011;64454;51.984;9.838;2023-12-29T06:26:43;1.87;;;1.00;;
75820;SDS011;64454;51.984;9.838;2023-12-29T06:29:09;5.53;;;1.30;;
75820;SDS011;64454;51.984;9.838;2023-12-29T06:31:35;3.00;;;1.10;;
75820;SDS011;64454;51.984;9.838;2023-12-29T06:34:06;2.47;;;1.10;;
75820;SDS011;64454;51.984;9.838;2023-12-29T06:36:32;3.07;;;1.17;;
75820;SDS011;64454;51.984;9.838;2023-12-29T06:38:58;3.88;;;0.90;;
75820;SDS011;64454;51.984;9.838;2023-12-29T06:41:25;3.10;;;0.93;;
75820;SDS011;64454;51.984;9.838;2023-12-29T06:43:51;2.38;;;0.90;;
75820;SDS011;64454;51.984;9.838;2023-12-29T06:46:17;2.72;;;1.00;;
75820;SDS011;64454;51.984;9.838;2023-12-29T06:48:43;2.70;;;1.10;;
75820;SDS011;64454;51.984;9.838;2023-12-29T06:51:15;2.78;;;0.90;;
75820;SDS011;64454;51.984;9.838;2023-12-29T06:53:42;3.15;;;1.50;;
75820;SDS011;64454;51.984;9.838;2023-12-29T06:56:12;2.03;;;1.02;;
75820;SDS011;64454;51.984;9.838;2023-12-29T06:58:39;4.80;;;0.90;;
75820;SDS011;64454;51.984;9.838;2023-12-29T07:01:05;3.00;;;1.20;;
75820;SDS011;64454;51.984;9.838;2023-12-29T07:03:31;2.40;;;1.05;;
75820;SDS011;64454;51.984;9.838;2023-12-29T07:05:59;6.70;;;1.30;;
75820;SDS011;64454;51.984;9.838;2023-12-29T07:08:26;4.10;;;1.10;;
75820;SDS011;64454;51.984;9.838;2023-12-29T07:10:52;3.70;;;0.80;;
75820;SDS011;64454;51.984;9.838;2023-12-29T07:13:18;1.52;;;0.82;;
75820;SDS011;64454;51.984;9.838;2023-12-29T07:15:45;2.38;;;1.10;;
75820;SDS011;64454;51.984;9.838;2023-12-29T07:18:13;2.67;;;1.00;;
75820;SDS011;64454;51.984;9.838;2023-12-29T07:20:39;2.15;;;1.00;;
75820;SDS011;64454;51.984;9.838;2023-12-29T07:23:05;2.20;;;1.00;;
75820;SDS011;64454;51.984;9.838;2023-12-29T07:25:31;3.80;;;1.67;;
75820;SDS011;64454;51.984;9.838;2023-12-29T07:27:57;2.00;;;1.00;;
75820;SDS011;64454;51.984;9.838;2023-12-29T07:30:23;2.15;;;1.00;;
75820;SDS011;64454;51.984;9.838;2023-12-29T07:32:50;4.00;;;1.10;;
75820;SDS011;64454;51.984;9.838;2023-12-29T07:35:16;3.47;;;1.20;;
75820;SDS011;64454;51.984;9.838;2023-12-29T07:37:44;3.00;;;1.10;;
75820;SDS011;64454;51.984;9.838;2023-12-29T07:40:11;2.70;;;0.90;;
75820;SDS011;64454;51.984;9.838;2023-12-29T07:42:38;3.60;;;1.95;;
75820;SDS011;64454;51.984;9.838;2023-12-29T07:45:06;5.50;;;1.20;;
75820;SDS011;64454;51.984;9.838;2023-12-29T07:47:34;2.25;;;0.82;;
75820;SDS011;64454;51.984;9.838;2023-12-29T07:50:00;5.03;;;1.10;;
75820;SDS011;64454;51.984;9.838;2023-12-29T07:52:26;2.40;;;1.15;;
75820;SDS011;64454;51.984;9.838;2023-12-29T07:54:52;4.50;;;1.13;;
75820;SDS011;64454;51.984;9.838;2023-12-29T07:57:19;2.90;;;1.00;;
75820;SDS011;64454;51.984;9.838;2023-12-29T07:59:45;2.97;;;0.98;;
75820;SDS011;64454;51.984;9.838;2023-12-29T08:02:11;2.30;;;1.00;;
75820;SDS011;64454;51.984;9.838;2023-12-29T08:04:37;3.05;;;1.02;;
75820;SDS011;64454;51.984;9.838;2023-12-29T08:07:04;5.05;;;1.40;;
75820;SDS011;64454;51.984;9.838;2023-12-29T08:09:30;5.40;;;1.45;;
75820;SDS011;64454;51.984;9.838;2023-12-29T08:11:56;4.32;;;1.40;;
75820;SDS011;64454;51.984;9.838;2023-12-29T08:14:22;3.10;;;1.02;;
75820;SDS011;64454;51.984;9.838;2023-12-29T08:16:48;1.90;;;1.10;;
75820;SDS011;64454;51.984;9.838;2023-12-29T08:19:14;3.22;;;0.98;;
75820;SDS011;64454;51.984;9.838;2023-12-29T08:21:41;3.70;;;1.10;;
75820;SDS011;64454;51.984;9.838;2023-12-29T08:24:08;2.10;;;1.10;;
75820;SDS011;64454;51.984;9.838;2023-12-29T08:26:34;2.58;;;0.93;;
75820;SDS011;64454;51.984;9.838;2023-12-29T08:29:09;4.10;;;1.25;;
75820;SDS011;64454;51.984;9.838;2023-12-29T08:31:35;3.53;;;1.25;;
75820;SDS011;64454;51.984;9.838;2023-12-29T08:34:01;4.00;;;1.80;;
75820;SDS011;64454;51.984;9.838;2023-12-29T08:36:27;3.17;;;1.10;;
75820;SDS011;64454;51.984;9.838;2023-12-29T08:38:53;2.75;;;1.40;;
75820;SDS011;64454;51.984;9.838;2023-12-29T08:41:20;2.10;;;1.10;;
75820;SDS011;64454;51.984;9.838;2023-12-29T08:43:46;3.63;;;1.50;;
75820;SDS011;64454;51.984;9.838;2023-12-29T08:46:12;2.13;;;1.10;;
75820;SDS011;64454;51.984;9.838;2023-12-29T08:48:38;3.50;;;1.50;;
75820;SDS011;64454;51.984;9.838;2023-12-29T08:51:04;2.93;;;1.10;;
75820;SDS011;64454;51.984;9.838;2023-12-29T08:53:31;2.05;;;0.80;;
75820;SDS011;64454;51.984;9.838;2023-12-29T08:56:00;3.70;;;1.40;;
75820;SDS011;64454;51.984;9.838;2023-12-29T08:58:27;2.45;;;1.20;;
75820;SDS011;64454;51.984;9.838;2023-12-29T09:00:53;2.88;;;0.80;;
75820;SDS011;64454;51.984;9.838;2023-12-29T09:03:19;1.75;;;0.98;;
75820;SDS011;64454;51.984;9.838;2023-12-29T09:05:45;5.10;;;1.60;;
75820;SDS011;64454;51.984;9.838;2023-12-29T09:08:12;3.55;;;1.08;;
75820;SDS011;64454;51.984;9.838;2023-12-29T09:10:38;5.38;;;1.20;;
75820;SDS011;64454;51.984;9.838;2023-12-29T09:13:04;5.70;;;1.30;;
75820;SDS011;64454;51.984;9.838;2023-12-29T09:15:31;6.88;;;1.80;;
75820;SDS011;64454;51.984;9.838;2023-12-29T09:17:57;2.58;;;1.20;;
75820;SDS011;64454;51.984;9.838;2023-12-29T09:20:23;4.07;;;1.17;;
75820;SDS011;64454;51.984;9.838;2023-12-29T09:22:49;2.50;;;1.05;;
75820;SDS011;64454;51.984;9.838;2023-12-29T09:25:16;3.95;;;1.42;;
75820;SDS011;64454;51.984;9.838;2023-12-29T09:27:43;2.80;;;1.10;;
75820;SDS011;64454;51.984;9.838;2023-12-29T09:30:10;3.15;;;1.65;;
75820;SDS011;64454;51.984;9.838;2023-12-29T09:32:37;3.42;;;1.05;;
75820;SDS011;64454;51.984;9.838;2023-12-29T09:35:03;5.00;;;1.17;;
75820;SDS011;64454;51.984;9.838;2023-12-29T09:37:30;2.92;;;1.30;;
75820;SDS011;64454;51.984;9.838;2023-12-29T09:39:56;4.50;;;1.10;;
75820;SDS011;64454;51.984;9.838;2023-12-29T09:42:22;4.28;;;1.38;;
75820;SDS011;64454;51.984;9.838;2023-12-29T09:44:54;2.10;;;1.00;;
75820;SDS011;64454;51.984;9.838;2023-12-29T09:47:21;2.50;;;0.80;;
75820;SDS011;64454;51.984;9.838;2023-12-29T09:49:52;3.00;;;1.00;;
75820;SDS011;64454;51.984;9.838;2023-12-29T09:52:19;2.33;;;1.55;;
75820;SDS011;64454;51.984;9.838;2023-12-29T09:54:47;3.05;;;1.20;;
75820;SDS011;64454;51.984;9.838;2023-12-29T09:57:16;3.42;;;0.90;;
75820;SDS011;64454;51.984;9.838;2023-12-29T09:59:44;2.40;;;0.90;;
75820;SDS011;64454;51.984;9.838;2023-12-29T10:02:14;3.20;;;1.00;;
75820;SDS011;64454;51.984;9.838;2023-12-29T10:04:41;4.10;;;0.70;;
75820;SDS011;64454;51.984;9.838;2023-12-29T10:07:08;2.78;;;0.90;;
75820;SDS011;64454;51.984;9.838;2023-12-29T10:09:44;3.00;;;0.97;;
75820;SDS011;64454;51.984;9.838;2023-12-29T10:12:13;1.40;;;0.75;;
75820;SDS011;64454;51.984;9.838;2023-12-29T10:14:41;2.30;;;0.82;;
75820;SDS011;64454;51.984;9.838;2023-12-29T10:17:16;4.60;;;1.13;;
75820;SDS011;64454;51.984;9.838;2023-12-29T10:19:58;1.88;;;0.80;;
75820;SDS011;64454;51.984;9.838;2023-12-29T10:22:37;1.20;;;0.80;;
75820;SDS011;64454;51.984;9.838;2023-12-29T10:25:16;1.90;;;0.60;;
75820;SDS011;64454;51.984;9.838;2023-12-29T10:27:43;1.55;;;0.70;;
75820;SDS011;64454;51.984;9.838;2023-12-29T10:30:10;2.95;;;1.30;;
75820;SDS011;64454;51.984;9.838;2023-12-29T10:32:38;4.10;;;1.10;;
75820;SDS011;64454;51.984;9.838;2023-12-29T10:35:07;1.20;;;0.70;;
75820;SDS011;64454;51.984;9.838;2023-12-29T10:37:34;3.70;;;1.00;;
75820;SDS011;64454;51.984;9.838;2023-12-29T10:40:01;1.42;;;0.82;;
75820;SDS011;64454;51.984;9.838;2023-12-29T10:42:28;2.30;;;0.80;;
75820;SDS011;64454;51.984;9.838;2023-12-29T10:45:04;1.38;;;0.88;;
75820;SDS011;64454;51.984;9.838;2023-12-29T10:47:32;3.65;;;1.20;;
75820;SDS011;64454;51.984;9.838;2023-12-29T10:49:58;2.67;;;1.23;;
75820;SDS011;64454;51.984;9.838;2023-12-29T10:52:25;2.10;;;1.10;;
75820;SDS011;64454;51.984;9.838;2023-12-29T10:54:54;1.48;;;0.90;;
75820;SDS011;64454;51.984;9.838;2023-12-29T10:57:31;3.10;;;0.90;;
75820;SDS011;64454;51.984;9.838;2023-12-29T10:59:57;1.70;;;0.80;;
75820;SDS011;64454;51.984;9.838;2023-12-29T11:02:25;1.98;;;0.90;;
75820;SDS011;64454;51.984;9.838;2023-12-29T11:04:51;2.40;;;0.90;;
75820;SDS011;64454;51.984;9.838;2023-12-29T11:07:30;1.30;;;0.60;;
75820;SDS011;64454;51.984;9.838;2023-12-29T11:10:00;2.40;;;1.00;;
75820;SDS011;64454;51.984;9.838;2023-12-29T11:12:28;2.20;;;0.80;;
75820;SDS011;64454;51.984;9.838;2023-12-29T11:14:57;2.33;;;0.90;;
75820;SDS011;64454;51.984;9.838;2023-12-29T11:17:26;1.70;;;0.68;;
75820;SDS011;64454;51.984;9.838;2023-12-29T11:19:54;1.10;;;0.40;;
75820;SDS011;64454;51.984;9.838;2023-12-29T11:22:23;1.60;;;0.52;;
75820;SDS011;64454;51.984;9.838;2023-12-29T11:24:53;2.13;;;0.60;;
75820;SDS011;64454;51.984;9.838;2023-12-29T11:27:20;1.63;;;0.73;;
75820;SDS011;64454;51.984;9.838;2023-12-29T11:29:48;0.90;;;0.50;;
75820;SDS011;64454;51.984;9.838;2023-12-29T11:32:16;1.10;;;0.60;;
75820;SDS011;64454;51.984;9.838;2023-12-29T11:34:52;1.40;;;0.50;;
75820;SDS011;64454;51.984;9.838;2023-12-29T11:37:27;2.00;;;0.50;;
75820;SDS011;64454;51.984;9.838;2023-12-29T11:40:04;2.10;;;0.60;;
75820;SDS011;64454;51.984;9.838;2023-12-29T11:42:48;1.25;;;0.47;;
75820;SDS011;64454;51.984;9.838;2023-12-29T11:45:25;1.70;;;0.50;;
75820;SDS011;64454;51.984;9.838;2023-12-29T11:47:54;1.83;;;0.80;;
75820;SDS011;64454;51.984;9.838;2023-12-29T11:50:28;1.20;;;0.50;;
75820;SDS011;64454;51.984;9.838;2023-12-29T11:52:56;1.00;;;0.65;;
75820;SDS011;64454;51.984;9.838;2023-12-29T11:55:27;0.90;;;0.60;;
75820;SDS011;64454;51.984;9.838;2023-12-29T11:57:56;0.80;;;0.50;;
75820;SDS011;64454;51.984;9.838;2023-12-29T12:03:13;1.10;;;0.40;;
75820;SDS011;64454;51.984;9.838;2023-12-29T12:05:44;1.45;;;0.52;;
75820;SDS011;64454;51.984;9.838;2023-12-29T12:08:26;1.35;;;0.70;;
75820;SDS011;64454;51.984;9.838;2023-12-29T12:10:54;2.00;;;0.60;;
75820;SDS011;64454;51.984;9.838;2023-12-29T12:16:09;1.40;;;0.60;;
75820;SDS011;64454;51.984;9.838;2023-12-29T12:18:55;0.70;;;0.40;;
75820;SDS011;64454;51.984;9.838;2023-12-29T12:21:23;0.60;;;0.30;;
75820;SDS011;64454;51.984;9.838;2023-12-29T12:23:51;1.00;;;0.40;;
75820;SDS011;64454;51.984;9.838;2023-12-29T12:26:19;1.00;;;0.30;;
75820;SDS011;64454;51.984;9.838;2023-12-29T12:28:52;2.50;;;0.55;;
75820;SDS011;64454;51.984;9.838;2023-12-29T12:31:19;0.60;;;0.35;;
75820;SDS011;64454;51.984;9.838;2023-12-29T12:33:52;0.70;;;0.40;;
75820;SDS011;64454;51.984;9.838;2023-12-29T12:36:20;0.60;;;0.30;;
75820;SDS011;64454;51.984;9.838;2023-12-29T12:38:50;0.90;;;0.60;;
75820;SDS011;64454;51.984;9.838;2023-12-29T12:41:17;0.75;;;0.40;;
75820;SDS011;64454;51.984;9.838;2023-12-29T12:43:44;0.70;;;0.50;;
75820;SDS011;64454;51.984;9.838;2023-12-29T12:46:23;0.63;;;0.30;;
75820;SDS011;64454;51.984;9.838;2023-12-29T12:48:50;0.90;;;0.30;;
75820;SDS011;64454;51.984;9.838;2023-12-29T12:51:16;1.25;;;0.30;;
75820;SDS011;64454;51.984;9.838;2023-12-29T12:53:45;0.80;;;0.40;;
75820;SDS011;64454;51.984;9.838;2023-12-29T12:56:13;0.70;;;0.40;;
75820;SDS011;64454;51.984;9.838;2023-12-29T12:58:41;0.70;;;0.30;;
75820;SDS011;64454;51.984;9.838;2023-12-29T13:01:07;0.70;;;0.40;;
75820;SDS011;64454;51.984;9.838;2023-12-29T13:03:36;1.00;;;0.40;;
75820;SDS011;64454;51.984;9.838;2023-12-29T13:06:04;0.70;;;0.40;;
75820;SDS011;64454;51.984;9.838;2023-12-29T13:08:32;1.00;;;0.30;;
75820;SDS011;64454;51.984;9.838;2023-12-29T13:10:59;0.82;;;0.40;;
75820;SDS011;64454;51.984;9.838;2023-12-29T13:13:34;0.80;;;0.50;;
75820;SDS011;64454;51.984;9.838;2023-12-29T13:16:02;1.02;;;0.30;;
75820;SDS011;64454;51.984;9.838;2023-12-29T13:18:29;1.00;;;0.55;;
75820;SDS011;64454;51.984;9.838;2023-12-29T13:20:57;0.80;;;0.40;;
75820;SDS011;64454;51.984;9.838;2023-12-29T13:23:24;0.65;;;0.40;;
75820;SDS011;64454;51.984;9.838;2023-12-29T13:25:53;1.10;;;0.60;;
75820;SDS011;64454;51.984;9.838;2023-12-29T13:28:22;0.90;;;0.47;;
75820;SDS011;64454;51.984;9.838;2023-12-29T13:30:49;0.70;;;0.40;;
75820;SDS011;64454;51.984;9.838;2023-12-29T13:33:16;1.20;;;0.40;;
75820;SDS011;64454;51.984;9.838;2023-12-29T13:35:52;1.02;;;0.50;;
75820;SDS011;64454;51.984;9.838;2023-12-29T13:38:33;0.70;;;0.40;;
75820;SDS011;64454;51.984;9.838;2023-12-29T13:41:09;1.30;;;0.60;;
75820;SDS011;64454;51.984;9.838;2023-12-29T13:43:37;0.73;;;0.30;;
75820;SDS011;64454;51.984;9.838;2023-12-29T13:46:07;0.80;;;0.40;;
75820;SDS011;64454;51.984;9.838;2023-12-29T13:48:36;0.70;;;0.30;;
75820;SDS011;64454;51.984;9.838;2023-12-29T13:51:04;0.75;;;0.30;;
75820;SDS011;64454;51.984;9.838;2023-12-29T13:53:31;0.60;;;0.38;;
75820;SDS011;64454;51.984;9.838;2023-12-29T13:56:05;1.10;;;0.40;;
75820;SDS011;64454;51.984;9.838;2023-12-29T13:58:33;1.40;;;0.50;;
75820;SDS011;64454;51.984;9.838;2023-12-29T14:00:59;1.05;;;0.55;;
75820;SDS011;64454;51.984;9.838;2023-12-29T14:03:30;1.10;;;0.60;;
75820;SDS011;64454;51.984;9.838;2023-12-29T14:06:03;1.15;;;0.65;;
75820;SDS011;64454;51.984;9.838;2023-12-29T14:08:38;1.00;;;0.50;;
75820;SDS011;64454;51.984;9.838;2023-12-29T14:11:10;1.20;;;0.70;;
75820;SDS011;64454;51.984;9.838;2023-12-29T14:13:40;1.52;;;0.60;;
75820;SDS011;64454;51.984;9.838;2023-12-29T14:16:07;1.20;;;0.57;;
75820;SDS011;64454;51.984;9.838;2023-12-29T14:18:38;1.70;;;1.40;;
75820;SDS011;64454;51.984;9.838;2023-12-29T14:21:22;1.48;;;0.88;;
75820;SDS011;64454;51.984;9.838;2023-12-29T14:24:05;2.28;;;1.17;;
75820;SDS011;64454;51.984;9.838;2023-12-29T14:26:34;2.22;;;1.00;;
75820;SDS011;64454;51.984;9.838;2023-12-29T14:29:04;0.98;;;0.65;;
75820;SDS011;64454;51.984;9.838;2023-12-29T14:31:34;1.50;;;0.80;;
75820;SDS011;64454;51.984;9.838;2023-12-29T14:34:03;1.50;;;1.00;;
75820;SDS011;64454;51.984;9.838;2023-12-29T14:36:30;1.40;;;0.90;;
75820;SDS011;64454;51.984;9.838;2023-12-29T14:38:57;1.92;;;1.30;;
75820;SDS011;64454;51.984;9.838;2023-12-29T14:41:23;1.60;;;0.70;;
75820;SDS011;64454;51.984;9.838;2023-12-29T14:43:49;1.55;;;1.40;;
75820;SDS011;64454;51.984;9.838;2023-12-29T14:46:15;1.30;;;0.90;;
75820;SDS011;64454;51.984;9.838;2023-12-29T14:48:41;1.20;;;1.02;;
75820;SDS011;64454;51.984;9.838;2023-12-29T14:51:08;2.38;;;1.00;;
75820;SDS011;64454;51.984;9.838;2023-12-29T14:53:35;2.00;;;0.90;;
75820;SDS011;64454;51.984;9.838;2023-12-29T14:56:01;1.50;;;0.90;;
75820;SDS011;64454;51.984;9.838;2023-12-29T14:58:27;2.80;;;1.40;;